aviador You're here:

KHON Decoded Metar

HURON in SD, USA
Report Time2018-02-21 20:55:00
UTC Time2018-02-21 21:18:40
Flight Rules vfr VFR
Wind170° at 12 kt
W.Decomp.*RWY 17: 11.9 kt HW 1.5 kt LCW
RWY 12: 8.8 kt HW 8.2 kt RCW
W.Rank170° ranks 3
Current wind is above 170° avg. (9.8)
Visibility9999 m
Phenomena:N/A
Clouds:N/A
Expected CloudBase > 3,200 ft AGL from Temp-Dew spread
CeilingNone
Temp-8°C (ISA -20)
Dew Point-16°C (53% RH)
AAT-15.7°C
QNH1034 hPa
Density Alt-1,942 ft
Elevation1,280 ft
Report Wrong Elevation
Raw Report
METAR KHON 212055Z AUTO 17012KT 10SM CLR M08/M16 A3054 RMK AO2 SLP374
T10831161 58014=

Extra information for KHON:More info

Metar Taf Metar & Taf Last 4 Metars F.Rules Stats Wind Profile Meteogram Temp Stats Airport Information Weather charts Add Link Nearby VenuesMetar ALERT Operation Metar Decoded Social comments

AIRNAV info for KHON